Flight Track Log - Related Links

Times and Time Zones

All times are in EDT time to prevent confusion due to time zone crossing. See the ASQ4096 flight status page for this flight to view local times or setup timezone preferences in your user account.

Time Position Orientation Groundspeed Altitude Reporting Facility
EDT Latitude Longitude Course Direction KTS MPH feet Rate Location/Type
Sun 09:37:10 PM 42.2058 -83.3556 276° West 161 185 1,200  Level Cleveland Center
Sun 09:38:28 PM 42.1464 -83.3950 206° Southwest 214 246 4,500 2,436 Climbing Cleveland Center
Sun 09:39:23 PM 42.1342 -83.4700 258° West 259 298 6,600 2,483 Climbing Cleveland Center
Sun 09:40:00 PM 42.2333 -83.7282 270° West  Level FlightAware Approximate
Sun 09:40:24 PM 42.1525 -83.5661 284° West 266 306 9,300  Level Cleveland Center
Sun 09:41:00 PM 42.2334 -83.8242 270° West  Level FlightAware Approximate
Sun 09:41:11 PM 42.1611 -83.6422 279° West 314 361 10,200  Level Cleveland Center
Sun 09:42:00 PM 42.2362 -83.9201 276° West  Level FlightAware Approximate
Sun 09:42:11 PM 42.1867 -83.7694 285° West 338 389 11,100  Level Cleveland Center
Sun 09:43:11 PM 42.2100 -83.9053 283° West 359 413 12,500 1,400 Climbing Cleveland Center
Sun 09:44:11 PM 42.2350 -84.0469 283° West 375 432 13,900 1,350 Climbing Cleveland Center
Sun 09:45:11 PM 42.2597 -84.1886 283° West 390 449 15,200 1,350 Climbing Cleveland Center
Sun 09:46:11 PM 42.2614 -84.3347 271° West 395 455 16,600 1,300 Climbing Cleveland Center
Sun 09:47:11 PM 42.2567 -84.4775 267° West 390 449 17,800 1,050 Climbing Cleveland Center
Sun 09:48:11 PM 42.2536 -84.6261 268° West 385 443 18,700 869 Climbing Cleveland Center
Sun 09:49:36 PM 42.2531 -84.8167 270° West 402 463 19,900 531 Climbing Chicago Center
Sun 09:50:38 PM 42.2494 -84.9736 268° West 416 479 20,000 48 Climbing Chicago Center
Sun 09:51:40 PM 42.2461 -85.1669 269° West 427 491 20,000  Level Chicago Center
Sun 09:52:42 PM 42.2425 -85.3297 268° West 433 498 20,000 -677 Level Chicago Center
Sun 09:53:44 PM 42.2394 -85.4814 268° West 413 475 18,600 -1,742 Descending Chicago Center
Sun 09:54:46 PM 42.2256 -85.6297 263° West 400 460 16,400 -2,195 Descending Chicago Center
Sun 09:55:47 PM 42.2019 -85.7714 257° West 386 444 14,100 -2,146 Descending Chicago Center
Sun 09:56:49 PM 42.1783 -85.9097 257° West 379 436 12,000 -1,452 Descending Chicago Center
Sun 09:57:51 PM 42.1536 -86.0575 257° West 378 435 11,100 -484 Descending Chicago Center
Sun 09:58:53 PM 42.1444 -86.1942 265° West 375 432 11,000 -341 Descending Chicago Center
Sun 09:59:54 PM 42.1461 -86.3319 271° West 369 425 10,400 -488 Descending Chicago Center
Sun 10:00:56 PM 42.1475 -86.4672 271° West 365 420 10,000 -194 Descending Chicago Center
Sun 10:01:58 PM 42.1483 -86.6217 270° West 345 397 10,000 -532 Level Chicago Center
Sun 10:03:00 PM 42.1517 -86.7272 272° West 277 319 8,900 -927 Descending Chicago Center
Sun 10:04:01 PM 42.1531 -86.8303 271° West 276 318 8,100 -390 Descending Chicago Center
Sun 10:05:03 PM 42.1533 -86.9311 270° West 273 314 8,100  Level Chicago Center
Sun 10:06:05 PM 42.1606 -87.0328 276° West 274 315 8,100 -48 Level Chicago Center
Sun 10:07:07 PM 42.1664 -87.1319 275° West 269 310 8,000 -49 Descending Chicago Center
Sun 10:08:08 PM 42.1731 -87.2353 275° West 278 320 8,000  Level Chicago Center
Sun 10:09:10 PM 42.1825 -87.3553 276° West 273 314 8,000 -390 Level Chicago Center
Sun 10:10:11 PM 42.1828 -87.4578 270° West 275 316 7,200 -1,171 Descending Chicago Center
Sun 10:11:13 PM 42.1769 -87.5553 265° West 266 306 5,600 -1,463 Descending Chicago Center
Sun 10:12:14 PM 42.1719 -87.6458 266° West 249 287 4,200 -780 Descending Chicago Center
Sun 10:13:16 PM 42.1458 -87.7275 247° West 244 281 4,000 -435 Descending Chicago Center
Sun 10:14:18 PM 42.1042 -87.7783 222° Southwest 214 246 3,300 -878 Descending Chicago Center
Sun 10:15:19 PM 42.0597 -87.8311 221° Southwest 193 222 2,200 -1,082 Descending Chicago Center

Login

Don't have an account? Register now (free) for customized features, flight alerts, and more!